sensor_id;sensor_type;location;lat;lon;timestamp;P1;durP1;ratioP1;P2;durP2;ratioP2
55710;SDS011;41612;51.994;5.880;2022-07-22T00:02:15;4.00;;;1.65;;
55710;SDS011;41612;51.994;5.880;2022-07-22T00:04:46;2.70;;;1.33;;
55710;SDS011;41612;51.994;5.880;2022-07-22T00:07:32;4.63;;;1.48;;
55710;SDS011;41612;51.994;5.880;2022-07-22T00:09:58;4.88;;;1.52;;
55710;SDS011;41612;51.994;5.880;2022-07-22T00:12:24;4.10;;;1.48;;
55710;SDS011;41612;51.994;5.880;2022-07-22T00:14:51;3.22;;;1.42;;
55710;SDS011;41612;51.994;5.880;2022-07-22T00:17:17;3.55;;;1.40;;
55710;SDS011;41612;51.994;5.880;2022-07-22T00:19:44;7.55;;;1.67;;
55710;SDS011;41612;51.994;5.880;2022-07-22T00:22:30;5.05;;;2.03;;
55710;SDS011;41612;51.994;5.880;2022-07-22T00:24:55;5.22;;;1.90;;
55710;SDS011;41612;51.994;5.880;2022-07-22T00:27:21;6.28;;;2.03;;
55710;SDS011;41612;51.994;5.880;2022-07-22T00:29:47;4.43;;;1.75;;
55710;SDS011;41612;51.994;5.880;2022-07-22T00:32:13;4.90;;;1.70;;
55710;SDS011;41612;51.994;5.880;2022-07-22T00:34:45;2.95;;;1.42;;
55710;SDS011;41612;51.994;5.880;2022-07-22T00:37:10;2.95;;;1.38;;
55710;SDS011;41612;51.994;5.880;2022-07-22T00:39:36;4.00;;;1.42;;
55710;SDS011;41612;51.994;5.880;2022-07-22T00:42:02;4.35;;;1.80;;
55710;SDS011;41612;51.994;5.880;2022-07-22T00:44:28;4.07;;;1.52;;
55710;SDS011;41612;51.994;5.880;2022-07-22T00:46:57;5.35;;;2.10;;
55710;SDS011;41612;51.994;5.880;2022-07-22T00:49:27;3.80;;;1.70;;
55710;SDS011;41612;51.994;5.880;2022-07-22T00:51:56;6.20;;;2.05;;
55710;SDS011;41612;51.994;5.880;2022-07-22T00:54:25;5.72;;;2.00;;
55710;SDS011;41612;51.994;5.880;2022-07-22T00:56:51;4.68;;;1.65;;
55710;SDS011;41612;51.994;5.880;2022-07-22T00:59:16;4.32;;;1.88;;
55710;SDS011;41612;51.994;5.880;2022-07-22T01:01:42;5.00;;;1.75;;
55710;SDS011;41612;51.994;5.880;2022-07-22T01:04:14;2.75;;;1.38;;
55710;SDS011;41612;51.994;5.880;2022-07-22T01:06:43;5.05;;;2.20;;
55710;SDS011;41612;51.994;5.880;2022-07-22T01:09:11;5.03;;;2.10;;
55710;SDS011;41612;51.994;5.880;2022-07-22T01:11:38;4.15;;;1.70;;
55710;SDS011;41612;51.994;5.880;2022-07-22T01:14:05;4.40;;;1.90;;
55710;SDS011;41612;51.994;5.880;2022-07-22T01:16:30;7.72;;;2.10;;
55710;SDS011;41612;51.994;5.880;2022-07-22T01:19:11;4.60;;;2.17;;
55710;SDS011;41612;51.994;5.880;2022-07-22T01:21:37;3.92;;;1.60;;
55710;SDS011;41612;51.994;5.880;2022-07-22T01:24:04;4.10;;;1.60;;
55710;SDS011;41612;51.994;5.880;2022-07-22T01:26:30;3.60;;;1.60;;
55710;SDS011;41612;51.994;5.880;2022-07-22T01:28:59;3.75;;;1.70;;
55710;SDS011;41612;51.994;5.880;2022-07-22T01:31:26;3.60;;;1.90;;
55710;SDS011;41612;51.994;5.880;2022-07-22T01:33:59;4.72;;;1.88;;
55710;SDS011;41612;51.994;5.880;2022-07-22T01:36:25;5.32;;;1.77;;
55710;SDS011;41612;51.994;5.880;2022-07-22T01:38:51;3.20;;;1.48;;
55710;SDS011;41612;51.994;5.880;2022-07-22T01:41:17;5.30;;;1.98;;
55710;SDS011;41612;51.994;5.880;2022-07-22T01:43:43;6.55;;;1.90;;
55710;SDS011;41612;51.994;5.880;2022-07-22T01:46:10;6.50;;;2.17;;
55710;SDS011;41612;51.994;5.880;2022-07-22T01:48:39;5.32;;;1.75;;
55710;SDS011;41612;51.994;5.880;2022-07-22T01:51:10;3.65;;;1.95;;
55710;SDS011;41612;51.994;5.880;2022-07-22T01:53:37;3.35;;;1.70;;
55710;SDS011;41612;51.994;5.880;2022-07-22T01:56:04;4.05;;;1.42;;
55710;SDS011;41612;51.994;5.880;2022-07-22T01:58:34;3.63;;;1.83;;
55710;SDS011;41612;51.994;5.880;2022-07-22T02:01:03;4.97;;;2.35;;
55710;SDS011;41612;51.994;5.880;2022-07-22T02:03:46;3.85;;;1.67;;
55710;SDS011;41612;51.994;5.880;2022-07-22T02:06:12;5.05;;;1.58;;
55710;SDS011;41612;51.994;5.880;2022-07-22T02:08:38;5.18;;;1.90;;
55710;SDS011;41612;51.994;5.880;2022-07-22T02:11:10;4.30;;;1.83;;
55710;SDS011;41612;51.994;5.880;2022-07-22T02:13:49;4.75;;;1.65;;
55710;SDS011;41612;51.994;5.880;2022-07-22T02:16:15;5.07;;;1.83;;
55710;SDS011;41612;51.994;5.880;2022-07-22T02:18:41;3.53;;;1.67;;
55710;SDS011;41612;51.994;5.880;2022-07-22T02:21:11;3.50;;;1.70;;
55710;SDS011;41612;51.994;5.880;2022-07-22T02:23:36;4.32;;;1.98;;
55710;SDS011;41612;51.994;5.880;2022-07-22T02:26:03;4.65;;;1.65;;
55710;SDS011;41612;51.994;5.880;2022-07-22T02:28:29;4.97;;;1.67;;
55710;SDS011;41612;51.994;5.880;2022-07-22T02:30:57;3.50;;;1.70;;
55710;SDS011;41612;51.994;5.880;2022-07-22T02:33:33;3.55;;;1.83;;
55710;SDS011;41612;51.994;5.880;2022-07-22T02:36:00;5.72;;;2.00;;
55710;SDS011;41612;51.994;5.880;2022-07-22T02:38:26;4.00;;;1.40;;
55710;SDS011;41612;51.994;5.880;2022-07-22T02:40:52;7.95;;;1.95;;
55710;SDS011;41612;51.994;5.880;2022-07-22T02:43:18;3.13;;;1.70;;
55710;SDS011;41612;51.994;5.880;2022-07-22T02:45:45;3.45;;;1.73;;
55710;SDS011;41612;51.994;5.880;2022-07-22T02:50:56;2.72;;;1.42;;
55710;SDS011;41612;51.994;5.880;2022-07-22T02:53:24;4.03;;;2.20;;
55710;SDS011;41612;51.994;5.880;2022-07-22T02:55:50;4.13;;;2.20;;
55710;SDS011;41612;51.994;5.880;2022-07-22T02:58:16;2.47;;;1.50;;
55710;SDS011;41612;51.994;5.880;2022-07-22T03:00:44;5.18;;;1.88;;
55710;SDS011;41612;51.994;5.880;2022-07-22T03:03:15;4.47;;;2.33;;
55710;SDS011;41612;51.994;5.880;2022-07-22T03:05:41;3.30;;;1.60;;
55710;SDS011;41612;51.994;5.880;2022-07-22T03:10:55;5.03;;;2.13;;
55710;SDS011;41612;51.994;5.880;2022-07-22T03:13:24;6.72;;;1.92;;
55710;SDS011;41612;51.994;5.880;2022-07-22T03:15:49;6.22;;;1.95;;
55710;SDS011;41612;51.994;5.880;2022-07-22T03:21:04;4.78;;;2.00;;
55710;SDS011;41612;51.994;5.880;2022-07-22T03:23:29;6.10;;;2.38;;
55710;SDS011;41612;51.994;5.880;2022-07-22T03:25:56;2.67;;;1.67;;
55710;SDS011;41612;51.994;5.880;2022-07-22T03:28:28;6.95;;;1.77;;
55710;SDS011;41612;51.994;5.880;2022-07-22T03:30:54;4.97;;;1.92;;
55710;SDS011;41612;51.994;5.880;2022-07-22T03:33:26;3.92;;;1.88;;
55710;SDS011;41612;51.994;5.880;2022-07-22T03:35:52;4.28;;;2.20;;
55710;SDS011;41612;51.994;5.880;2022-07-22T03:38:21;5.53;;;1.73;;
55710;SDS011;41612;51.994;5.880;2022-07-22T03:40:47;3.85;;;1.70;;
55710;SDS011;41612;51.994;5.880;2022-07-22T03:43:13;4.18;;;2.20;;
55710;SDS011;41612;51.994;5.880;2022-07-22T03:45:39;4.35;;;2.00;;
55710;SDS011;41612;51.994;5.880;2022-07-22T03:50:57;4.82;;;2.00;;
55710;SDS011;41612;51.994;5.880;2022-07-22T03:53:25;6.03;;;1.83;;
55710;SDS011;41612;51.994;5.880;2022-07-22T03:55:55;6.70;;;2.13;;
55710;SDS011;41612;51.994;5.880;2022-07-22T03:58:20;3.70;;;1.77;;
55710;SDS011;41612;51.994;5.880;2022-07-22T04:00:47;3.97;;;2.20;;
55710;SDS011;41612;51.994;5.880;2022-07-22T04:03:19;6.57;;;2.10;;
55710;SDS011;41612;51.994;5.880;2022-07-22T04:06:03;3.75;;;1.73;;
55710;SDS011;41612;51.994;5.880;2022-07-22T04:08:52;3.00;;;1.48;;
55710;SDS011;41612;51.994;5.880;2022-07-22T04:11:17;4.72;;;2.03;;
55710;SDS011;41612;51.994;5.880;2022-07-22T04:13:43;4.20;;;1.98;;
55710;SDS011;41612;51.994;5.880;2022-07-22T04:16:09;4.30;;;1.73;;
55710;SDS011;41612;51.994;5.880;2022-07-22T04:18:43;4.82;;;1.85;;
55710;SDS011;41612;51.994;5.880;2022-07-22T04:21:09;5.35;;;2.10;;
55710;SDS011;41612;51.994;5.880;2022-07-22T04:23:48;3.13;;;1.52;;
55710;SDS011;41612;51.994;5.880;2022-07-22T04:26:24;3.47;;;1.80;;
55710;SDS011;41612;51.994;5.880;2022-07-22T04:28:49;2.97;;;1.80;;
55710;SDS011;41612;51.994;5.880;2022-07-22T04:31:16;2.97;;;1.50;;
55710;SDS011;41612;51.994;5.880;2022-07-22T04:33:45;3.60;;;1.60;;
55710;SDS011;41612;51.994;5.880;2022-07-22T04:36:13;5.68;;;1.88;;
55710;SDS011;41612;51.994;5.880;2022-07-22T04:38:40;6.60;;;2.40;;
55710;SDS011;41612;51.994;5.880;2022-07-22T04:41:08;6.13;;;2.65;;
55710;SDS011;41612;51.994;5.880;2022-07-22T04:43:34;6.18;;;2.85;;
55710;SDS011;41612;51.994;5.880;2022-07-22T04:46:00;4.15;;;1.67;;
55710;SDS011;41612;51.994;5.880;2022-07-22T04:48:36;3.60;;;1.88;;
55710;SDS011;41612;51.994;5.880;2022-07-22T04:51:02;4.75;;;1.92;;
55710;SDS011;41612;51.994;5.880;2022-07-22T04:53:33;3.90;;;1.70;;
55710;SDS011;41612;51.994;5.880;2022-07-22T04:55:58;4.40;;;1.85;;
55710;SDS011;41612;51.994;5.880;2022-07-22T04:58:24;2.85;;;1.80;;
55710;SDS011;41612;51.994;5.880;2022-07-22T05:00:51;3.80;;;1.85;;
55710;SDS011;41612;51.994;5.880;2022-07-22T05:06:04;4.75;;;1.80;;
55710;SDS011;41612;51.994;5.880;2022-07-22T05:08:35;4.45;;;1.83;;
55710;SDS011;41612;51.994;5.880;2022-07-22T05:11:01;3.75;;;1.85;;
55710;SDS011;41612;51.994;5.880;2022-07-22T05:13:27;4.47;;;1.92;;
55710;SDS011;41612;51.994;5.880;2022-07-22T05:15:53;3.83;;;1.77;;
55710;SDS011;41612;51.994;5.880;2022-07-22T05:18:28;4.10;;;1.85;;
55710;SDS011;41612;51.994;5.880;2022-07-22T05:20:54;4.50;;;1.63;;
55710;SDS011;41612;51.994;5.880;2022-07-22T05:23:19;6.45;;;1.60;;
55710;SDS011;41612;51.994;5.880;2022-07-22T05:25:51;6.82;;;2.20;;
55710;SDS011;41612;51.994;5.880;2022-07-22T05:28:17;4.05;;;1.55;;
55710;SDS011;41612;51.994;5.880;2022-07-22T05:30:45;5.68;;;1.75;;
55710;SDS011;41612;51.994;5.880;2022-07-22T05:33:11;3.20;;;1.40;;
55710;SDS011;41612;51.994;5.880;2022-07-22T05:36:02;2.58;;;1.23;;
55710;SDS011;41612;51.994;5.880;2022-07-22T05:38:35;2.90;;;1.30;;
55710;SDS011;41612;51.994;5.880;2022-07-22T05:41:01;3.28;;;1.50;;
55710;SDS011;41612;51.994;5.880;2022-07-22T05:43:28;3.58;;;1.80;;
55710;SDS011;41612;51.994;5.880;2022-07-22T05:45:54;3.20;;;1.55;;
55710;SDS011;41612;51.994;5.880;2022-07-22T05:48:24;5.25;;;1.40;;
55710;SDS011;41612;51.994;5.880;2022-07-22T05:50:51;2.53;;;1.25;;
55710;SDS011;41612;51.994;5.880;2022-07-22T05:53:17;3.38;;;1.83;;
55710;SDS011;41612;51.994;5.880;2022-07-22T05:55:43;2.70;;;1.50;;
55710;SDS011;41612;51.994;5.880;2022-07-22T05:58:09;4.68;;;1.85;;
55710;SDS011;41612;51.994;5.880;2022-07-22T06:00:35;7.22;;;2.05;;
55710;SDS011;41612;51.994;5.880;2022-07-22T06:03:01;5.97;;;2.22;;
55710;SDS011;41612;51.994;5.880;2022-07-22T06:08:23;4.30;;;1.60;;
55710;SDS011;41612;51.994;5.880;2022-07-22T06:10:50;3.58;;;1.70;;
55710;SDS011;41612;51.994;5.880;2022-07-22T06:13:17;3.60;;;1.40;;
55710;SDS011;41612;51.994;5.880;2022-07-22T06:15:44;5.75;;;1.60;;
55710;SDS011;41612;51.994;5.880;2022-07-22T06:18:11;3.65;;;1.50;;
55710;SDS011;41612;51.994;5.880;2022-07-22T06:23:14;2.80;;;1.38;;
55710;SDS011;41612;51.994;5.880;2022-07-22T06:25:41;4.10;;;1.20;;
55710;SDS011;41612;51.994;5.880;2022-07-22T06:28:11;4.15;;;1.48;;
55710;SDS011;41612;51.994;5.880;2022-07-22T06:30:41;2.50;;;1.00;;
55710;SDS011;41612;51.994;5.880;2022-07-22T06:33:07;5.68;;;1.70;;
55710;SDS011;41612;51.994;5.880;2022-07-22T06:35:33;3.55;;;1.42;;
55710;SDS011;41612;51.994;5.880;2022-07-22T06:38:00;3.95;;;1.73;;
55710;SDS011;41612;51.994;5.880;2022-07-22T06:40:26;5.93;;;1.58;;
55710;SDS011;41612;51.994;5.880;2022-07-22T06:42:59;2.47;;;1.25;;
55710;SDS011;41612;51.994;5.880;2022-07-22T06:45:52;3.50;;;1.10;;
55710;SDS011;41612;51.994;5.880;2022-07-22T06:48:24;3.60;;;1.20;;
55710;SDS011;41612;51.994;5.880;2022-07-22T06:50:49;2.85;;;1.35;;
55710;SDS011;41612;51.994;5.880;2022-07-22T06:53:16;3.70;;;1.40;;
55710;SDS011;41612;51.994;5.880;2022-07-22T06:55:42;3.83;;;1.90;;
55710;SDS011;41612;51.994;5.880;2022-07-22T06:58:10;2.92;;;1.13;;
55710;SDS011;41612;51.994;5.880;2022-07-22T07:00:36;2.28;;;1.35;;
55710;SDS011;41612;51.994;5.880;2022-07-22T07:03:30;1.85;;;1.10;;
55710;SDS011;41612;51.994;5.880;2022-07-22T07:05:59;1.85;;;1.02;;
55710;SDS011;41612;51.994;5.880;2022-07-22T07:08:31;3.25;;;1.35;;
55710;SDS011;41612;51.994;5.880;2022-07-22T07:10:56;4.38;;;1.63;;
55710;SDS011;41612;51.994;5.880;2022-07-22T07:13:22;2.90;;;1.38;;
55710;SDS011;41612;51.994;5.880;2022-07-22T07:15:48;3.70;;;1.20;;
55710;SDS011;41612;51.994;5.880;2022-07-22T07:18:14;2.40;;;1.20;;
55710;SDS011;41612;51.994;5.880;2022-07-22T07:20:39;3.30;;;1.33;;
55710;SDS011;41612;51.994;5.880;2022-07-22T07:23:08;4.50;;;1.65;;
55710;SDS011;41612;51.994;5.880;2022-07-22T07:25:38;4.28;;;1.70;;
55710;SDS011;41612;51.994;5.880;2022-07-22T07:28:04;3.35;;;1.48;;
55710;SDS011;41612;51.994;5.880;2022-07-22T07:30:49;2.75;;;1.23;;
55710;SDS011;41612;51.994;5.880;2022-07-22T07:33:17;4.85;;;1.73;;
55710;SDS011;41612;51.994;5.880;2022-07-22T07:35:42;5.85;;;1.48;;
55710;SDS011;41612;51.994;5.880;2022-07-22T07:38:08;3.90;;;1.48;;
55710;SDS011;41612;51.994;5.880;2022-07-22T07:40:35;2.60;;;1.40;;
55710;SDS011;41612;51.994;5.880;2022-07-22T07:43:01;4.18;;;1.40;;
55710;SDS011;41612;51.994;5.880;2022-07-22T07:45:27;2.10;;;1.10;;
55710;SDS011;41612;51.994;5.880;2022-07-22T07:47:53;3.17;;;1.40;;
55710;SDS011;41612;51.994;5.880;2022-07-22T07:52:59;2.40;;;1.15;;
55710;SDS011;41612;51.994;5.880;2022-07-22T07:55:26;3.00;;;1.35;;
55710;SDS011;41612;51.994;5.880;2022-07-22T07:57:52;2.97;;;1.27;;
55710;SDS011;41612;51.994;5.880;2022-07-22T08:00:23;4.32;;;1.60;;
55710;SDS011;41612;51.994;5.880;2022-07-22T08:02:53;2.70;;;1.30;;
55710;SDS011;41612;51.994;5.880;2022-07-22T08:05:21;6.45;;;1.73;;
55710;SDS011;41612;51.994;5.880;2022-07-22T08:07:48;4.15;;;1.80;;
55710;SDS011;41612;51.994;5.880;2022-07-22T08:10:15;6.03;;;1.85;;
55710;SDS011;41612;51.994;5.880;2022-07-22T08:13:08;4.28;;;1.10;;
55710;SDS011;41612;51.994;5.880;2022-07-22T08:15:42;3.17;;;1.05;;
55710;SDS011;41612;51.994;5.880;2022-07-22T08:18:14;2.90;;;0.90;;
55710;SDS011;41612;51.994;5.880;2022-07-22T08:20:40;2.55;;;1.20;;
55710;SDS011;41612;51.994;5.880;2022-07-22T08:23:06;2.63;;;1.10;;
55710;SDS011;41612;51.994;5.880;2022-07-22T08:25:32;4.03;;;1.40;;
55710;SDS011;41612;51.994;5.880;2022-07-22T08:27:58;6.63;;;2.25;;
55710;SDS011;41612;51.994;5.880;2022-07-22T08:30:24;3.00;;;1.30;;
55710;SDS011;41612;51.994;5.880;2022-07-22T08:32:52;7.35;;;2.42;;
55710;SDS011;41612;51.994;5.880;2022-07-22T08:35:18;5.93;;;2.13;;
55710;SDS011;41612;51.994;5.880;2022-07-22T08:37:45;3.45;;;1.35;;
55710;SDS011;41612;51.994;5.880;2022-07-22T08:40:13;2.35;;;1.10;;
55710;SDS011;41612;51.994;5.880;2022-07-22T08:42:41;3.28;;;1.13;;
55710;SDS011;41612;51.994;5.880;2022-07-22T08:45:08;3.20;;;1.38;;
55710;SDS011;41612;51.994;5.880;2022-07-22T08:47:35;3.25;;;1.20;;
55710;SDS011;41612;51.994;5.880;2022-07-22T08:50:19;2.92;;;1.08;;
55710;SDS011;41612;51.994;5.880;2022-07-22T08:53:02;1.98;;;1.10;;
55710;SDS011;41612;51.994;5.880;2022-07-22T08:55:27;2.63;;;1.20;;
55710;SDS011;41612;51.994;5.880;2022-07-22T08:57:53;3.00;;;1.08;;
55710;SDS011;41612;51.994;5.880;2022-07-22T09:00:20;2.05;;;0.98;;
55710;SDS011;41612;51.994;5.880;2022-07-22T09:02:48;3.45;;;1.35;;
55710;SDS011;41612;51.994;5.880;2022-07-22T09:05:15;2.97;;;1.13;;
55710;SDS011;41612;51.994;5.880;2022-07-22T09:07:42;3.75;;;1.45;;
55710;SDS011;41612;51.994;5.880;2022-07-22T09:10:16;2.33;;;1.35;;
55710;SDS011;41612;51.994;5.880;2022-07-22T09:13:04;2.72;;;1.02;;
55710;SDS011;41612;51.994;5.880;2022-07-22T09:15:51;2.80;;;1.20;;
55710;SDS011;41612;51.994;5.880;2022-07-22T09:19:12;3.85;;;1.27;;
55710;SDS011;41612;51.994;5.880;2022-07-22T09:21:48;3.22;;;1.42;;
55710;SDS011;41612;51.994;5.880;2022-07-22T09:24:28;3.55;;;1.23;;
55710;SDS011;41612;51.994;5.880;2022-07-22T09:27:11;2.05;;;1.00;;
55710;SDS011;41612;51.994;5.880;2022-07-22T09:30:13;3.30;;;1.20;;
55710;SDS011;41612;51.994;5.880;2022-07-22T09:32:47;1.95;;;0.93;;
55710;SDS011;41612;51.994;5.880;2022-07-22T09:35:46;3.03;;;1.20;;
55710;SDS011;41612;51.994;5.880;2022-07-22T09:38:15;7.97;;;1.75;;
55710;SDS011;41612;51.994;5.880;2022-07-22T09:40:42;3.40;;;1.27;;
55710;SDS011;41612;51.994;5.880;2022-07-22T09:43:10;3.25;;;1.23;;
55710;SDS011;41612;51.994;5.880;2022-07-22T09:45:44;1.65;;;0.95;;
55710;SDS011;41612;51.994;5.880;2022-07-22T09:48:37;4.97;;;1.20;;
55710;SDS011;41612;51.994;5.880;2022-07-22T09:51:23;30.17;;;3.53;;
55710;SDS011;41612;51.994;5.880;2022-07-22T09:54:25;4.20;;;1.52;;
55710;SDS011;41612;51.994;5.880;2022-07-22T09:56:56;3.92;;;1.10;;
55710;SDS011;41612;51.994;5.880;2022-07-22T10:18:13;2.30;;;1.00;;
55710;SDS011;41612;51.994;5.880;2022-07-22T10:21:12;2.42;;;0.98;;
55710;SDS011;41612;51.994;5.880;2022-07-22T10:29:27;2.92;;;1.20;;
55710;SDS011;41612;51.994;5.880;2022-07-22T10:34:43;1.58;;;0.82;;
55710;SDS011;41612;51.994;5.880;2022-07-22T10:43:08;2.03;;;0.73;;
55710;SDS011;41612;51.994;5.880;2022-07-22T10:45:45;3.08;;;1.65;;
55710;SDS011;41612;51.994;5.880;2022-07-22T10:48:13;3.58;;;1.65;;
55710;SDS011;41612;51.994;5.880;2022-07-22T10:50:50;2.05;;;1.10;;
55710;SDS011;41612;51.994;5.880;2022-07-22T10:53:21;2.35;;;1.00;;
55710;SDS011;41612;51.994;5.880;2022-07-22T11:01:04;5.70;;;1.10;;
55710;SDS011;41612;51.994;5.880;2022-07-22T11:03:32;3.92;;;1.17;;
55710;SDS011;41612;51.994;5.880;2022-07-22T11:08:53;2.60;;;1.10;;
55710;SDS011;41612;51.994;5.880;2022-07-22T11:11:32;2.88;;;1.30;;
55710;SDS011;41612;51.994;5.880;2022-07-22T11:13:58;3.58;;;1.45;;
55710;SDS011;41612;51.994;5.880;2022-07-22T11:16:25;3.60;;;1.52;;
55710;SDS011;41612;51.994;5.880;2022-07-22T11:19:00;2.00;;;0.88;;
55710;SDS011;41612;51.994;5.880;2022-07-22T11:21:28;3.75;;;1.08;;
55710;SDS011;41612;51.994;5.880;2022-07-22T11:23:57;2.70;;;1.10;;
55710;SDS011;41612;51.994;5.880;2022-07-22T11:26:46;4.18;;;1.40;;
55710;SDS011;41612;51.994;5.880;2022-07-22T11:29:28;4.28;;;1.17;;
55710;SDS011;41612;51.994;5.880;2022-07-22T11:31:58;2.15;;;1.02;;
55710;SDS011;41612;51.994;5.880;2022-07-22T11:34:25;3.42;;;1.23;;
55710;SDS011;41612;51.994;5.880;2022-07-22T11:36:52;2.13;;;1.00;;
55710;SDS011;41612;51.994;5.880;2022-07-22T11:39:26;2.22;;;0.82;;
55710;SDS011;41612;51.994;5.880;2022-07-22T11:41:53;2.08;;;0.77;;
55710;SDS011;41612;51.994;5.880;2022-07-22T11:44:23;1.92;;;1.00;;
55710;SDS011;41612;51.994;5.880;2022-07-22T11:46:51;3.80;;;1.15;;
55710;SDS011;41612;51.994;5.880;2022-07-22T11:49:20;1.70;;;0.90;;
55710;SDS011;41612;51.994;5.880;2022-07-22T11:51:47;1.98;;;0.90;;
55710;SDS011;41612;51.994;5.880;2022-07-22T11:54:13;3.97;;;1.05;;
55710;SDS011;41612;51.994;5.880;2022-07-22T11:56:39;1.73;;;0.88;;
55710;SDS011;41612;51.994;5.880;2022-07-22T11:59:06;4.30;;;0.98;;
55710;SDS011;41612;51.994;5.880;2022-07-22T12:01:37;3.20;;;1.17;;
55710;SDS011;41612;51.994;5.880;2022-07-22T12:04:09;2.70;;;1.10;;
55710;SDS011;41612;51.994;5.880;2022-07-22T12:06:38;4.85;;;1.77;;
55710;SDS011;41612;51.994;5.880;2022-07-22T12:09:06;4.10;;;1.30;;
55710;SDS011;41612;51.994;5.880;2022-07-22T12:11:37;1.60;;;0.93;;
55710;SDS011;41612;51.994;5.880;2022-07-22T12:14:06;2.88;;;1.00;;
55710;SDS011;41612;51.994;5.880;2022-07-22T12:16:36;1.65;;;0.82;;
55710;SDS011;41612;51.994;5.880;2022-07-22T12:21:30;2.22;;;0.90;;
55710;SDS011;41612;51.994;5.880;2022-07-22T12:29:19;1.85;;;0.80;;
55710;SDS011;41612;51.994;5.880;2022-07-22T12:31:45;1.95;;;0.90;;
55710;SDS011;41612;51.994;5.880;2022-07-22T12:34:12;1.38;;;0.80;;
55710;SDS011;41612;51.994;5.880;2022-07-22T12:36:42;2.20;;;1.00;;
55710;SDS011;41612;51.994;5.880;2022-07-22T12:39:16;3.10;;;1.10;;
55710;SDS011;41612;51.994;5.880;2022-07-22T12:41:50;2.33;;;0.93;;
55710;SDS011;41612;51.994;5.880;2022-07-22T12:44:25;2.55;;;1.10;;
55710;SDS011;41612;51.994;5.880;2022-07-22T12:46:52;2.58;;;1.17;;
55710;SDS011;41612;51.994;5.880;2022-07-22T12:49:22;3.10;;;1.45;;
55710;SDS011;41612;51.994;5.880;2022-07-22T12:52:05;2.65;;;0.70;;
55710;SDS011;41612;51.994;5.880;2022-07-22T12:54:32;1.73;;;0.93;;
55710;SDS011;41612;51.994;5.880;2022-07-22T12:56:59;2.17;;;1.20;;
55710;SDS011;41612;51.994;5.880;2022-07-22T12:59:25;1.50;;;0.63;;
55710;SDS011;41612;51.994;5.880;2022-07-22T13:01:51;4.13;;;1.20;;
55710;SDS011;41612;51.994;5.880;2022-07-22T13:04:17;4.07;;;1.00;;
55710;SDS011;41612;51.994;5.880;2022-07-22T13:06:42;1.80;;;0.70;;
55710;SDS011;41612;51.994;5.880;2022-07-22T13:09:08;1.15;;;0.60;;
55710;SDS011;41612;51.994;5.880;2022-07-22T13:11:34;1.65;;;0.90;;
55710;SDS011;41612;51.994;5.880;2022-07-22T13:14:08;2.38;;;0.80;;
55710;SDS011;41612;51.994;5.880;2022-07-22T13:16:34;2.22;;;0.85;;
55710;SDS011;41612;51.994;5.880;2022-07-22T13:19:00;1.70;;;0.77;;
55710;SDS011;41612;51.994;5.880;2022-07-22T13:21:26;2.42;;;0.85;;
55710;SDS011;41612;51.994;5.880;2022-07-22T13:23:52;1.80;;;0.95;;
55710;SDS011;41612;51.994;5.880;2022-07-22T13:26:17;1.85;;;0.80;;
55710;SDS011;41612;51.994;5.880;2022-07-22T13:28:43;2.40;;;1.27;;
55710;SDS011;41612;51.994;5.880;2022-07-22T13:31:09;2.03;;;0.93;;
55710;SDS011;41612;51.994;5.880;2022-07-22T13:33:34;1.83;;;0.90;;
55710;SDS011;41612;51.994;5.880;2022-07-22T13:36:00;2.75;;;1.10;;
55710;SDS011;41612;51.994;5.880;2022-07-22T13:38:27;2.42;;;1.02;;
55710;SDS011;41612;51.994;5.880;2022-07-22T13:40:53;2.38;;;0.95;;
55710;SDS011;41612;51.994;5.880;2022-07-22T13:43:19;1.63;;;0.93;;
55710;SDS011;41612;51.994;5.880;2022-07-22T13:45:46;1.83;;;0.90;;
55710;SDS011;41612;51.994;5.880;2022-07-22T13:48:11;3.03;;;1.15;;
55710;SDS011;41612;51.994;5.880;2022-07-22T13:50:37;1.90;;;0.80;;
55710;SDS011;41612;51.994;5.880;2022-07-22T13:53:03;0.77;;;0.50;;
55710;SDS011;41612;51.994;5.880;2022-07-22T13:55:28;2.33;;;0.70;;
55710;SDS011;41612;51.994;5.880;2022-07-22T13:57:55;1.90;;;0.80;;
55710;SDS011;41612;51.994;5.880;2022-07-22T14:00:23;3.38;;;1.20;;
55710;SDS011;41612;51.994;5.880;2022-07-22T14:02:49;2.22;;;0.90;;
55710;SDS011;41612;51.994;5.880;2022-07-22T14:05:14;1.45;;;0.80;;
55710;SDS011;41612;51.994;5.880;2022-07-22T14:07:40;1.40;;;0.70;;
55710;SDS011;41612;51.994;5.880;2022-07-22T14:10:06;1.55;;;0.70;;
55710;SDS011;41612;51.994;5.880;2022-07-22T14:12:32;2.05;;;0.82;;
55710;SDS011;41612;51.994;5.880;2022-07-22T14:14:58;1.80;;;0.80;;
55710;SDS011;41612;51.994;5.880;2022-07-22T14:17:23;2.67;;;1.02;;
55710;SDS011;41612;51.994;5.880;2022-07-22T14:19:49;1.90;;;0.90;;
55710;SDS011;41612;51.994;5.880;2022-07-22T14:22:15;2.05;;;0.90;;
55710;SDS011;41612;51.994;5.880;2022-07-22T14:24:40;2.17;;;0.90;;
55710;SDS011;41612;51.994;5.880;2022-07-22T14:27:09;2.08;;;0.88;;
55710;SDS011;41612;51.994;5.880;2022-07-22T14:29:35;1.65;;;0.88;;
55710;SDS011;41612;51.994;5.880;2022-07-22T14:32:00;3.40;;;0.98;;
55710;SDS011;41612;51.994;5.880;2022-07-22T14:34:26;2.45;;;1.00;;
55710;SDS011;41612;51.994;5.880;2022-07-22T14:36:52;1.85;;;0.93;;
55710;SDS011;41612;51.994;5.880;2022-07-22T14:39:17;1.50;;;0.90;;
55710;SDS011;41612;51.994;5.880;2022-07-22T14:41:43;1.77;;;0.77;;
55710;SDS011;41612;51.994;5.880;2022-07-22T14:44:11;1.70;;;0.77;;
55710;SDS011;41612;51.994;5.880;2022-07-22T14:46:38;2.72;;;1.02;;
55710;SDS011;41612;51.994;5.880;2022-07-22T14:49:04;2.55;;;0.90;;
55710;SDS011;41612;51.994;5.880;2022-07-22T14:51:29;1.35;;;0.60;;
55710;SDS011;41612;51.994;5.880;2022-07-22T14:53:55;1.83;;;0.90;;
55710;SDS011;41612;51.994;5.880;2022-07-22T14:56:21;4.00;;;1.83;;
55710;SDS011;41612;51.994;5.880;2022-07-22T14:58:46;4.30;;;2.13;;
55710;SDS011;41612;51.994;5.880;2022-07-22T15:01:12;5.53;;;1.80;;
55710;SDS011;41612;51.994;5.880;2022-07-22T15:03:38;1.60;;;0.88;;
55710;SDS011;41612;51.994;5.880;2022-07-22T15:06:04;3.08;;;1.17;;
55710;SDS011;41612;51.994;5.880;2022-07-22T15:08:30;1.70;;;0.80;;
55710;SDS011;41612;51.994;5.880;2022-07-22T15:13:37;2.97;;;1.10;;
55710;SDS011;41612;51.994;5.880;2022-07-22T15:16:03;1.42;;;0.70;;
55710;SDS011;41612;51.994;5.880;2022-07-22T15:18:29;1.27;;;0.80;;
55710;SDS011;41612;51.994;5.880;2022-07-22T15:20:55;1.80;;;0.90;;
55710;SDS011;41612;51.994;5.880;2022-07-22T15:23:22;1.73;;;0.93;;
55710;SDS011;41612;51.994;5.880;2022-07-22T15:25:59;1.67;;;0.98;;
55710;SDS011;41612;51.994;5.880;2022-07-22T15:28:25;2.08;;;0.95;;
55710;SDS011;41612;51.994;5.880;2022-07-22T15:30:52;1.85;;;0.90;;
55710;SDS011;41612;51.994;5.880;2022-07-22T15:33:18;1.88;;;1.00;;
55710;SDS011;41612;51.994;5.880;2022-07-22T15:35:44;2.20;;;1.00;;
55710;SDS011;41612;51.994;5.880;2022-07-22T15:38:11;2.17;;;1.10;;
55710;SDS011;41612;51.994;5.880;2022-07-22T15:40:36;3.58;;;1.38;;
55710;SDS011;41612;51.994;5.880;2022-07-22T15:43:04;2.33;;;1.00;;
55710;SDS011;41612;51.994;5.880;2022-07-22T15:45:31;1.45;;;1.08;;
55710;SDS011;41612;51.994;5.880;2022-07-22T15:47:57;2.20;;;1.17;;
55710;SDS011;41612;51.994;5.880;2022-07-22T15:50:23;1.70;;;0.90;;
55710;SDS011;41612;51.994;5.880;2022-07-22T15:52:49;2.35;;;0.98;;
55710;SDS011;41612;51.994;5.880;2022-07-22T15:55:15;2.17;;;0.90;;
55710;SDS011;41612;51.994;5.880;2022-07-22T15:57:42;2.45;;;1.20;;
55710;SDS011;41612;51.994;5.880;2022-07-22T16:00:28;1.95;;;1.00;;
55710;SDS011;41612;51.994;5.880;2022-07-22T16:02:55;1.90;;;0.85;;
55710;SDS011;41612;51.994;5.880;2022-07-22T16:05:21;2.05;;;1.00;;
55710;SDS011;41612;51.994;5.880;2022-07-22T16:07:47;1.30;;;0.90;;
55710;SDS011;41612;51.994;5.880;2022-07-22T16:10:17;2.72;;;1.00;;
55710;SDS011;41612;51.994;5.880;2022-07-22T16:12:43;2.45;;;1.10;;
55710;SDS011;41612;51.994;5.880;2022-07-22T16:15:09;3.08;;;1.10;;